Time;durP1;ratioP1;P1;durP2;ratioP2;P2;SDS_P1;SDS_P2;PMS_P1;PMS_P2;Temp;Humidity;BMP_temperature;BMP_pressure;BME280_temperature;BME280_humidity;BME280_pressure;Samples;Min_cycle;Max_cycle;Signal;HPM_P1;HPM_P2
2023/09/06 00:02:05;;;;;;;2.90;2.80;;;30.60;48.70;;;;;;5033280;28;20439;-77
2023/09/06 00:04:33;;;;;;;2.90;2.80;;;30.60;49.00;;;;;;5033138;28;20439;-78
2023/09/06 00:07:05;;;;;;;2.93;2.83;;;30.60;48.90;;;;;;5033291;28;20517;-77
2023/09/06 00:09:34;;;;;;;2.60;2.50;;;30.50;48.90;;;;;;5033669;28;20486;-77
2023/09/06 00:12:01;;;;;;;2.80;2.70;;;30.50;48.90;;;;;;5033310;28;20485;-78
2023/09/06 00:14:29;;;;;;;2.70;2.60;;;30.50;49.00;;;;;;5033143;28;20518;-78
2023/09/06 00:16:57;;;;;;;3.20;3.00;;;30.50;49.00;;;;;;5033095;28;20481;-77
2023/09/06 00:19:26;;;;;;;2.80;2.70;;;30.40;49.00;;;;;;5034833;28;20545;-79
2023/09/06 00:21:54;;;;;;;3.00;2.80;;;30.40;49.20;;;;;;5034136;28;20489;-78
2023/09/06 00:24:24;;;;;;;3.07;2.97;;;30.40;49.00;;;;;;5034801;28;20440;-77
2023/09/06 00:26:54;;;;;;;2.83;2.70;;;30.30;49.10;;;;;;5031774;28;20743;-77
2023/09/06 00:29:22;;;;;;;2.90;2.70;;;30.30;49.20;;;;;;5033324;28;20441;-77
2023/09/06 00:31:50;;;;;;;2.70;2.60;;;30.30;49.20;;;;;;5033496;28;20934;-78
2023/09/06 00:34:19;;;;;;;2.90;2.70;;;30.20;49.20;;;;;;5033053;28;20480;-78
2023/09/06 00:36:47;;;;;;;2.70;2.60;;;30.20;49.30;;;;;;5033941;28;20434;-78
2023/09/06 00:39:16;;;;;;;2.63;2.53;;;30.20;49.40;;;;;;5033204;28;20471;-78
2023/09/06 00:41:45;;;;;;;3.37;3.07;;;30.20;49.30;;;;;;5033607;28;20410;-78
2023/09/06 00:44:14;;;;;;;2.70;2.60;;;30.20;49.20;;;;;;5033405;28;20501;-78
2023/09/06 00:46:42;;;;;;;2.63;2.53;;;30.10;49.30;;;;;;5032996;28;20451;-78
2023/09/06 00:49:10;;;;;;;2.63;2.53;;;30.10;49.30;;;;;;5033894;28;20505;-77
2023/09/06 00:51:38;;;;;;;2.77;2.60;;;30.10;49.50;;;;;;5032802;28;20947;-78
2023/09/06 00:54:07;;;;;;;2.87;2.77;;;30.10;49.50;;;;;;5035178;28;20568;-78
2023/09/06 00:56:35;;;;;;;2.57;2.47;;;30.00;49.50;;;;;;5034299;28;20406;-78
2023/09/06 00:59:05;;;;;;;3.20;3.00;;;30.00;49.60;;;;;;5032790;28;20466;-78
2023/09/06 01:01:34;;;;;;;2.80;2.70;;;30.00;49.50;;;;;;5032843;28;20476;-78
2023/09/06 01:04:02;;;;;;;2.70;2.60;;;29.90;49.60;;;;;;5033546;28;20497;-79
2023/09/06 01:06:30;;;;;;;2.80;2.70;;;29.90;49.60;;;;;;5032793;28;20499;-79
2023/09/06 01:08:59;;;;;;;2.40;2.30;;;29.90;49.60;;;;;;5033007;28;20474;-78
2023/09/06 01:11:28;;;;;;;2.53;2.43;;;29.90;49.60;;;;;;5033251;28;20452;-78
2023/09/06 01:13:58;;;;;;;2.40;2.30;;;29.90;49.70;;;;;;5032551;28;20471;-78
2023/09/06 01:16:29;;;;;;;2.50;2.40;;;29.90;49.70;;;;;;5032800;28;20526;-78
2023/09/06 01:18:57;;;;;;;3.00;2.40;;;29.80;49.70;;;;;;5033010;28;20477;-78
2023/09/06 01:21:27;;;;;;;2.67;2.57;;;29.80;49.80;;;;;;5033248;28;20417;-79
2023/09/06 01:23:56;;;;;;;8.47;7.60;;;29.80;49.80;;;;;;5033200;28;20418;-78
2023/09/06 01:26:24;;;;;;;11.10;10.00;;;29.80;49.80;;;;;;5033099;28;20420;-78
2023/09/06 01:28:52;;;;;;;12.60;11.13;;;29.80;49.80;;;;;;5033101;28;20523;-78
2023/09/06 01:31:20;;;;;;;11.63;10.40;;;29.70;49.70;;;;;;5038554;28;20457;-77
2023/09/06 01:33:48;;;;;;;12.00;10.80;;;29.70;49.80;;;;;;5032725;28;20475;-78
2023/09/06 01:36:17;;;;;;;13.50;12.10;;;29.70;49.80;;;;;;5031585;28;20818;-77
2023/09/06 01:38:44;;;;;;;14.20;12.70;;;29.60;49.80;;;;;;5032383;28;20456;-77
2023/09/06 01:41:14;;;;;;;15.27;13.17;;;29.60;49.90;;;;;;5032692;28;20433;-77
2023/09/06 01:43:42;;;;;;;14.10;12.60;;;29.60;50.00;;;;;;5033642;28;20520;-78
2023/09/06 01:46:10;;;;;;;14.40;12.80;;;29.60;50.00;;;;;;5034274;28;20448;-76
2023/09/06 01:48:39;;;;;;;18.13;12.03;;;29.50;50.00;;;;;;5032061;28;20484;-77
2023/09/06 01:51:09;;;;;;;15.23;13.33;;;29.50;50.10;;;;;;5031998;28;20421;-77
2023/09/06 01:53:38;;;;;;;14.97;13.33;;;29.50;50.10;;;;;;5032060;28;20565;-77
2023/09/06 01:56:07;;;;;;;13.87;12.37;;;29.50;50.10;;;;;;5031627;28;20428;-78
2023/09/06 01:58:37;;;;;;;14.23;12.13;;;29.40;50.10;;;;;;5031991;28;20468;-77
2023/09/06 02:01:05;;;;;;;13.87;12.20;;;29.40;50.10;;;;;;5031795;28;20452;-77
2023/09/06 02:03:34;;;;;;;13.63;12.23;;;29.50;50.30;;;;;;5031667;28;20430;-77
2023/09/06 02:06:03;;;;;;;13.33;11.93;;;29.40;50.10;;;;;;5031867;28;20418;-77
2023/09/06 02:08:30;;;;;;;14.83;12.80;;;29.40;50.20;;;;;;5030997;28;20479;-77
2023/09/06 02:10:59;;;;;;;12.60;11.30;;;29.40;50.20;;;;;;5032213;28;20817;-77
2023/09/06 02:13:27;;;;;;;12.07;10.77;;;29.30;50.20;;;;;;5033253;28;20453;-77
2023/09/06 02:15:56;;;;;;;12.80;11.43;;;29.30;50.20;;;;;;5035832;28;20467;-77
2023/09/06 02:18:26;;;;;;;13.13;11.83;;;29.30;50.30;;;;;;5047073;28;20449;-77
2023/09/06 02:20:56;;;;;;;12.90;11.60;;;29.20;50.20;;;;;;5036562;28;20426;-79
2023/09/06 02:23:24;;;;;;;11.30;10.10;;;29.20;50.40;;;;;;5032459;28;20900;-77
2023/09/06 02:25:52;;;;;;;13.27;11.87;;;29.20;50.40;;;;;;5032718;28;20472;-77
2023/09/06 02:28:20;;;;;;;12.73;11.30;;;29.10;50.40;;;;;;5032863;28;20467;-77
2023/09/06 02:30:49;;;;;;;11.67;10.57;;;29.20;50.50;;;;;;5032743;28;20877;-76
2023/09/06 02:33:18;;;;;;;13.40;11.87;;;29.10;50.40;;;;;;5033147;28;20447;-77
2023/09/06 02:35:47;;;;;;;12.13;10.83;;;29.10;50.40;;;;;;5036041;28;20434;-79
2023/09/06 02:38:15;;;;;;;11.90;10.27;;;29.10;50.40;;;;;;5032877;28;20525;-79
2023/09/06 02:40:42;;;;;;;12.33;10.67;;;29.10;50.50;;;;;;5032641;28;20493;-79
2023/09/06 02:43:13;;;;;;;12.07;10.40;;;29.10;50.60;;;;;;5032671;28;20827;-78
2023/09/06 02:45:49;;;;;;;11.20;10.10;;;29.10;50.50;;;;;;5032706;28;20452;-78
2023/09/06 02:48:19;;;;;;;11.30;9.97;;;29.00;50.60;;;;;;5031575;28;20462;-79
2023/09/06 02:50:47;;;;;;;10.27;9.13;;;29.00;50.60;;;;;;5034018;28;20410;-78
2023/09/06 02:53:19;;;;;;;10.80;9.70;;;29.00;50.20;;;;;;5036013;28;20454;-79
2023/09/06 02:55:51;;;;;;;11.03;9.77;;;29.00;50.50;;;;;;5035484;28;20433;-78
2023/09/06 02:58:23;;;;;;;11.03;9.93;;;29.00;50.70;;;;;;5035728;28;20446;-79
2023/09/06 03:00:57;;;;;;;10.33;9.33;;;29.00;50.60;;;;;;5035481;28;20512;-78
2023/09/06 03:03:27;;;;;;;9.67;8.77;;;29.00;50.70;;;;;;5035694;28;20520;-79
2023/09/06 03:05:57;;;;;;;10.20;9.20;;;28.90;50.60;;;;;;5035664;28;20432;-79
2023/09/06 03:08:27;;;;;;;10.20;9.10;;;28.90;50.70;;;;;;5035082;28;20455;-78
2023/09/06 03:10:57;;;;;;;9.73;8.73;;;28.90;50.60;;;;;;5035065;28;20442;-78
2023/09/06 03:13:25;;;;;;;9.70;8.70;;;28.90;50.70;;;;;;5034609;28;20451;-79
2023/09/06 03:15:54;;;;;;;9.87;8.47;;;28.90;50.80;;;;;;5033814;28;20505;-78
2023/09/06 03:18:23;;;;;;;9.87;8.83;;;28.80;50.80;;;;;;5034195;28;20521;-78
2023/09/06 03:20:55;;;;;;;9.40;8.50;;;28.80;50.80;;;;;;5034338;28;20426;-78
2023/09/06 03:23:24;;;;;;;9.00;8.10;;;28.80;50.90;;;;;;5033964;28;20436;-78
2023/09/06 03:25:54;;;;;;;9.40;8.47;;;28.80;51.00;;;;;;5034522;28;20468;-78
2023/09/06 03:28:23;;;;;;;8.53;7.70;;;28.80;50.90;;;;;;5034305;28;20438;-78
2023/09/06 03:30:51;;;;;;;9.20;8.20;;;28.80;51.00;;;;;;5033805;28;20522;-77
2023/09/06 03:33:19;;;;;;;9.27;8.40;;;28.70;50.80;;;;;;5034530;28;20458;-79
2023/09/06 03:35:48;;;;;;;8.83;7.93;;;28.70;50.90;;;;;;5033759;28;20488;-76
2023/09/06 03:41:02;;;;;;;8.57;7.77;;;28.70;51.00;;;;;;4975513;28;20501;-79
2023/09/06 03:43:32;;;;;;;8.07;7.30;;;28.70;51.00;;;;;;4981784;28;20438;-78
2023/09/06 03:46:09;;;;;;;8.13;7.40;;;28.60;51.00;;;;;;4981357;28;20825;-79
2023/09/06 03:48:40;;;;;;;8.90;8.00;;;28.60;51.00;;;;;;4980842;28;20429;-77
2023/09/06 03:51:14;;;;;;;8.70;7.90;;;28.60;50.90;;;;;;4978396;28;20453;-78
2023/09/06 03:53:43;;;;;;;8.20;7.40;;;28.50;51.00;;;;;;4979147;28;20446;-78
2023/09/06 03:56:15;;;;;;;8.43;7.57;;;28.50;51.00;;;;;;4979105;28;20472;-78
2023/09/06 03:58:44;;;;;;;7.30;6.60;;;28.50;51.10;;;;;;4979563;28;20448;-79
2023/09/06 04:01:15;;;;;;;7.60;6.90;;;28.50;51.00;;;;;;4980235;28;20425;-79
2023/09/06 04:03:50;;;;;;;7.50;6.80;;;28.50;51.10;;;;;;4979534;28;20456;-79
2023/09/06 04:06:19;;;;;;;7.67;6.93;;;28.50;51.10;;;;;;4981039;28;20522;-78
2023/09/06 04:08:48;;;;;;;8.37;7.23;;;28.50;51.10;;;;;;4981115;28;20521;-78
2023/09/06 04:11:19;;;;;;;8.00;7.30;;;28.50;51.20;;;;;;4981046;28;20455;-79
2023/09/06 04:13:48;;;;;;;8.20;7.40;;;28.40;51.10;;;;;;4981814;28;20434;-79
2023/09/06 04:16:16;;;;;;;7.40;6.50;;;28.40;51.30;;;;;;4980144;28;20444;-79
2023/09/06 04:18:44;;;;;;;7.70;7.00;;;28.40;51.30;;;;;;4984688;28;20566;-78
2023/09/06 04:21:13;;;;;;;8.13;7.37;;;28.40;51.10;;;;;;4978933;28;20432;-79
2023/09/06 04:23:41;;;;;;;6.93;6.33;;;28.30;51.30;;;;;;4984651;28;20416;-79
2023/09/06 04:26:10;;;;;;;7.37;6.67;;;28.30;51.90;;;;;;4985525;28;20473;-80
2023/09/06 04:28:40;;;;;;;6.80;6.20;;;28.30;51.40;;;;;;4986105;28;20927;-80
2023/09/06 04:31:09;;;;;;;6.53;6.00;;;28.30;51.30;;;;;;4986381;28;20417;-80
2023/09/06 04:33:37;;;;;;;6.90;6.30;;;28.30;51.30;;;;;;4983166;28;20421;-80
2023/09/06 04:36:07;;;;;;;6.80;6.20;;;28.30;51.20;;;;;;4984060;28;20450;-79
2023/09/06 04:38:35;;;;;;;7.23;6.53;;;28.20;51.30;;;;;;4983319;28;20432;-78
2023/09/06 04:41:04;;;;;;;6.40;5.80;;;28.20;51.50;;;;;;4980069;28;20496;-79
2023/09/06 04:43:33;;;;;;;6.50;6.00;;;28.20;51.50;;;;;;4979835;28;20513;-80
2023/09/06 04:46:03;;;;;;;6.70;6.10;;;28.20;51.30;;;;;;4978753;28;20464;-79
2023/09/06 04:48:31;;;;;;;6.97;5.90;;;28.20;51.40;;;;;;4979153;28;20417;-79
2023/09/06 04:51:01;;;;;;;6.33;5.83;;;28.10;51.50;;;;;;4979323;28;20644;-79
2023/09/06 04:53:29;;;;;;;6.27;5.70;;;28.10;51.50;;;;;;4979011;28;20455;-80
2023/09/06 04:55:57;;;;;;;6.10;5.50;;;28.10;51.60;;;;;;4979703;28;20450;-79
2023/09/06 04:58:25;;;;;;;6.77;6.17;;;28.10;51.60;;;;;;4982015;28;20447;-79
2023/09/06 05:00:55;;;;;;;6.37;5.77;;;28.10;51.60;;;;;;4981589;28;20429;-79
2023/09/06 05:03:27;;;;;;;6.30;5.70;;;28.10;51.70;;;;;;4979170;28;20446;-80
2023/09/06 05:05:55;;;;;;;5.93;5.43;;;28.10;52.00;;;;;;4979039;28;20448;-79
2023/09/06 05:08:24;;;;;;;6.33;5.73;;;28.10;51.60;;;;;;4978820;28;20431;-80
2023/09/06 05:10:52;;;;;;;6.00;5.50;;;28.00;51.70;;;;;;4979411;28;20459;-80
2023/09/06 05:13:20;;;;;;;5.83;5.30;;;28.00;51.60;;;;;;4978947;28;20446;-80
2023/09/06 05:15:48;;;;;;;5.20;4.80;;;28.00;51.60;;;;;;4979479;28;20506;-80
2023/09/06 05:18:17;;;;;;;5.60;5.10;;;28.00;51.70;;;;;;4978832;28;20488;-80
2023/09/06 05:20:47;;;;;;;6.03;5.50;;;28.00;51.70;;;;;;4979913;28;20436;-80
2023/09/06 05:23:15;;;;;;;5.87;5.40;;;27.90;51.60;;;;;;4979007;28;20481;-80
2023/09/06 05:25:44;;;;;;;5.67;5.20;;;28.00;51.80;;;;;;4979249;28;20478;-80
2023/09/06 05:28:14;;;;;;;6.23;5.67;;;28.00;51.70;;;;;;4978673;28;20488;-81
2023/09/06 05:30:43;;;;;;;5.17;4.77;;;28.00;51.70;;;;;;4980182;28;20497;-80
2023/09/06 05:33:12;;;;;;;6.07;5.57;;;28.00;51.70;;;;;;4996475;28;20436;-81
2023/09/06 05:35:41;;;;;;;5.00;4.50;;;28.00;51.60;;;;;;4995365;28;20439;-80
2023/09/06 05:38:10;;;;;;;5.13;4.70;;;27.90;51.60;;;;;;4981892;28;20448;-79
2023/09/06 05:40:41;;;;;;;5.13;4.73;;;27.90;51.70;;;;;;4973474;28;20452;-80
2023/09/06 05:43:10;;;;;;;5.20;4.80;;;27.90;51.80;;;;;;4974421;28;20424;-80
2023/09/06 05:45:38;;;;;;;5.47;5.00;;;27.90;51.80;;;;;;4973612;28;20476;-79
2023/09/06 05:48:07;;;;;;;4.93;4.53;;;27.90;51.70;;;;;;4974056;28;20425;-80
2023/09/06 05:50:39;;;;;;;4.80;4.40;;;27.90;51.70;;;;;;4975331;28;20557;-80
2023/09/06 05:53:07;;;;;;;5.10;4.60;;;27.90;51.80;;;;;;4974828;28;20413;-79
2023/09/06 05:55:36;;;;;;;5.20;4.77;;;27.90;51.80;;;;;;4975026;28;20473;-80
2023/09/06 05:58:05;;;;;;;4.60;4.30;;;27.90;51.60;;;;;;4974180;28;20471;-80
2023/09/06 06:00:34;;;;;;;4.63;4.33;;;27.90;51.70;;;;;;4975009;28;20540;-79
2023/09/06 06:03:04;;;;;;;5.60;5.10;;;27.90;51.70;;;;;;4974963;28;20794;-79
2023/09/06 06:05:32;;;;;;;4.90;4.50;;;28.00;51.60;;;;;;4974975;28;20424;-79
2023/09/06 06:08:01;;;;;;;5.10;4.70;;;27.90;51.70;;;;;;4974874;28;20429;-80
2023/09/06 06:10:34;;;;;;;4.47;4.17;;;28.00;51.70;;;;;;4974895;28;20495;-80
2023/09/06 06:13:04;;;;;;;4.70;4.37;;;28.00;51.60;;;;;;4976641;28;20485;-80
2023/09/06 06:15:33;;;;;;;5.53;4.40;;;28.00;51.60;;;;;;4977306;28;20421;-80
2023/09/06 06:18:02;;;;;;;5.00;4.60;;;28.00;51.50;;;;;;4977775;28;20450;-80
2023/09/06 06:20:31;;;;;;;5.57;4.33;;;28.00;52.20;;;;;;4977859;28;20455;-80
2023/09/06 06:23:11;;;;;;;4.70;4.40;;;28.00;51.60;;;;;;4979056;28;20450;-80
2023/09/06 06:25:40;;;;;;;4.43;4.13;;;28.10;51.60;;;;;;4980791;28;20450;-80
2023/09/06 06:28:09;;;;;;;4.30;4.00;;;28.10;51.50;;;;;;4982732;28;20483;-80
2023/09/06 06:30:38;;;;;;;4.50;4.20;;;28.10;51.40;;;;;;4982163;28;20473;-80
2023/09/06 06:33:06;;;;;;;4.60;4.20;;;28.20;51.40;;;;;;4981913;28;20439;-80
2023/09/06 06:35:36;;;;;;;4.20;3.90;;;28.20;51.40;;;;;;4982045;28;20449;-80
2023/09/06 06:38:04;;;;;;;4.13;3.83;;;28.30;51.30;;;;;;4982700;28;20456;-79
2023/09/06 06:40:36;;;;;;;5.00;4.60;;;28.30;51.00;;;;;;4982687;28;20471;-79
2023/09/06 06:43:04;;;;;;;5.77;4.40;;;28.30;51.20;;;;;;4981793;28;20457;-79
2023/09/06 06:45:34;;;;;;;4.30;3.90;;;28.30;51.20;;;;;;4982393;28;20479;-80
2023/09/06 06:48:03;;;;;;;4.30;4.00;;;28.30;51.20;;;;;;4981993;28;20445;-79
2023/09/06 06:50:32;;;;;;;4.63;4.23;;;28.30;51.00;;;;;;4982013;28;20504;-80
2023/09/06 06:53:00;;;;;;;4.40;4.10;;;28.30;50.80;;;;;;4982590;28;20429;-80
2023/09/06 06:55:29;;;;;;;3.90;3.70;;;28.30;50.80;;;;;;4982701;28;20518;-79
2023/09/06 06:57:57;;;;;;;4.33;4.10;;;28.30;51.00;;;;;;4983990;28;20446;-80
2023/09/06 07:00:25;;;;;;;3.50;3.40;;;28.30;50.80;;;;;;4983923;28;20476;-79
2023/09/06 07:02:55;;;;;;;4.47;3.70;;;28.30;51.20;;;;;;4980473;28;20413;-78
2023/09/06 07:05:23;;;;;;;3.77;3.57;;;28.40;50.80;;;;;;4981420;28;20457;-78
2023/09/06 07:07:51;;;;;;;4.33;3.93;;;28.40;51.20;;;;;;4981057;28;20441;-78
2023/09/06 07:10:21;;;;;;;4.17;3.87;;;28.40;50.80;;;;;;4981088;28;20451;-77
2023/09/06 07:12:49;;;;;;;4.17;3.77;;;28.40;50.90;;;;;;4981431;28;20515;-78
2023/09/06 07:15:18;;;;;;;4.03;3.73;;;28.40;50.90;;;;;;4980158;28;20515;-78
2023/09/06 07:17:46;;;;;;;3.77;3.57;;;28.50;51.00;;;;;;4981093;28;20425;-79
2023/09/06 07:20:16;;;;;;;4.20;3.80;;;28.50;50.80;;;;;;4983307;28;20491;-79
2023/09/06 07:22:44;;;;;;;4.27;3.97;;;28.50;50.60;;;;;;4983355;28;20438;-79
2023/09/06 07:25:13;;;;;;;3.17;3.00;;;28.50;50.70;;;;;;4984990;28;20444;-79
2023/09/06 07:27:41;;;;;;;3.70;3.40;;;28.50;50.80;;;;;;4983512;28;20497;-79
2023/09/06 07:30:11;;;;;;;4.40;4.03;;;28.60;51.00;;;;;;4982446;28;20444;-79
2023/09/06 07:32:39;;;;;;;3.90;3.70;;;28.60;50.70;;;;;;4983705;28;20456;-78
2023/09/06 07:35:09;;;;;;;4.40;4.10;;;28.60;50.60;;;;;;4984636;28;20458;-79
2023/09/06 07:37:41;;;;;;;3.77;3.53;;;28.70;50.60;;;;;;4983396;28;20460;-79
2023/09/06 07:40:10;;;;;;;3.53;3.37;;;28.70;50.60;;;;;;4985240;28;20505;-80
2023/09/06 07:42:39;;;;;;;3.10;3.00;;;28.70;50.60;;;;;;4982878;28;20508;-79
2023/09/06 07:45:08;;;;;;;4.20;3.80;;;28.80;50.60;;;;;;4979187;28;20500;-78
2023/09/06 07:47:36;;;;;;;3.50;3.20;;;28.90;50.50;;;;;;4978610;28;20478;-78
2023/09/06 07:50:05;;;;;;;4.10;3.60;;;28.90;50.40;;;;;;4978339;28;20505;-78
2023/09/06 07:52:33;;;;;;;3.63;3.40;;;28.90;50.20;;;;;;4979293;28;20417;-79
2023/09/06 07:55:03;;;;;;;3.77;3.47;;;29.00;50.40;;;;;;4980356;28;20499;-79
2023/09/06 07:57:32;;;;;;;3.20;3.00;;;29.10;50.90;;;;;;4980864;28;20463;-79
2023/09/06 08:00:00;;;;;;;3.80;3.50;;;29.20;50.20;;;;;;4979562;28;20448;-79
2023/09/06 08:02:28;;;;;;;3.70;3.40;;;29.30;50.10;;;;;;4981632;28;20444;-80
2023/09/06 08:04:57;;;;;;;3.90;3.70;;;29.40;50.00;;;;;;4981527;28;20425;-80
2023/09/06 08:07:25;;;;;;;3.03;2.83;;;29.50;49.80;;;;;;4983725;28;20512;-79
2023/09/06 08:09:53;;;;;;;6.60;3.43;;;29.70;49.70;;;;;;4985309;28;20479;-79
2023/09/06 08:12:23;;;;;;;3.07;2.97;;;29.80;49.40;;;;;;4985093;28;20438;-79
2023/09/06 08:14:51;;;;;;;3.63;3.33;;;29.90;49.30;;;;;;4979346;28;20438;-79
2023/09/06 08:17:19;;;;;;;3.30;3.10;;;30.10;49.40;;;;;;4980763;28;20423;-79
2023/09/06 08:19:47;;;;;;;2.90;2.80;;;30.30;49.10;;;;;;4982321;28;20500;-79
2023/09/06 08:22:15;;;;;;;3.03;2.90;;;30.50;48.90;;;;;;4978309;28;20518;-79
2023/09/06 08:24:44;;;;;;;3.13;3.03;;;30.70;48.80;;;;;;4976655;28;20436;-78
2023/09/06 08:27:12;;;;;;;2.90;2.80;;;30.90;48.60;;;;;;4973892;28;20478;-78
2023/09/06 08:29:41;;;;;;;3.20;3.10;;;31.10;48.30;;;;;;4974062;28;20994;-78
2023/09/06 08:32:10;;;;;;;3.03;2.93;;;31.30;48.20;;;;;;4974249;28;20442;-78
2023/09/06 08:34:38;;;;;;;2.80;2.70;;;31.50;47.80;;;;;;4975017;28;20473;-78
2023/09/06 08:37:07;;;;;;;2.97;2.77;;;31.70;47.60;;;;;;4977405;28;20474;-78
2023/09/06 08:39:35;;;;;;;3.33;3.17;;;31.90;47.50;;;;;;4989200;28;20528;-78
2023/09/06 08:42:06;;;;;;;2.83;2.73;;;32.10;48.00;;;;;;4989640;28;20508;-78
2023/09/06 08:44:35;;;;;;;2.80;2.70;;;32.30;47.10;;;;;;4985772;28;21027;-78
2023/09/06 08:47:05;;;;;;;2.87;2.53;;;32.50;46.90;;;;;;4975504;28;20484;-78
2023/09/06 08:49:33;;;;;;;3.17;3.00;;;32.60;46.70;;;;;;4975073;28;20469;-78
2023/09/06 08:52:02;;;;;;;2.90;2.80;;;32.80;46.50;;;;;;4974961;28;20575;-78
2023/09/06 08:54:31;;;;;;;2.87;2.70;;;33.00;46.40;;;;;;4974607;28;20533;-78
2023/09/06 08:56:59;;;;;;;3.17;2.97;;;33.10;46.20;;;;;;4975031;28;20442;-78
2023/09/06 08:59:28;;;;;;;2.23;2.13;;;33.30;46.00;;;;;;4974296;28;20524;-78
2023/09/06 09:01:57;;;;;;;2.60;2.40;;;33.50;45.80;;;;;;4974511;28;20512;-78
2023/09/06 09:04:28;;;;;;;2.50;2.40;;;33.70;45.70;;;;;;4977278;28;20474;-78
2023/09/06 09:06:57;;;;;;;3.53;2.20;;;33.90;45.50;;;;;;4978662;28;20442;-79
2023/09/06 09:09:26;;;;;;;2.23;2.20;;;34.00;45.30;;;;;;4979957;28;20437;-79
2023/09/06 09:11:55;;;;;;;2.43;2.13;;;34.20;45.20;;;;;;4973154;28;20417;-76
2023/09/06 09:14:24;;;;;;;2.60;2.50;;;34.40;45.20;;;;;;4972871;28;20533;-76
2023/09/06 09:16:55;;;;;;;2.90;2.80;;;34.50;44.90;;;;;;4973057;28;20529;-76
2023/09/06 09:19:23;;;;;;;2.40;2.30;;;34.70;44.80;;;;;;4972738;28;20466;-76
2023/09/06 09:21:55;;;;;;;2.00;2.00;;;34.90;44.60;;;;;;4973417;28;20445;-76
2023/09/06 09:24:26;;;;;;;2.10;2.00;;;35.00;44.50;;;;;;4972781;28;20438;-77
2023/09/06 09:26:56;;;;;;;2.40;2.30;;;35.20;44.30;;;;;;4973105;28;20441;-76
2023/09/06 09:29:24;;;;;;;2.57;2.47;;;35.40;44.20;;;;;;4974279;28;20547;-78
2023/09/06 09:31:52;;;;;;;2.43;2.23;;;35.60;44.10;;;;;;4973054;28;20888;-77
2023/09/06 09:34:20;;;;;;;2.13;2.03;;;35.70;43.80;;;;;;4972620;28;20441;-77
2023/09/06 09:36:51;;;;;;;2.07;1.97;;;35.90;43.70;;;;;;4972547;28;20516;-78
2023/09/06 09:39:25;;;;;;;2.20;2.10;;;36.10;43.50;;;;;;4976447;28;20476;-78
2023/09/06 09:41:53;;;;;;;1.87;1.87;;;36.30;43.30;;;;;;4978196;28;20492;-78
2023/09/06 09:44:26;;;;;;;2.40;1.87;;;36.50;43.20;;;;;;4973688;28;20450;-77
2023/09/06 09:46:56;;;;;;;1.90;1.90;;;36.60;43.00;;;;;;4973394;28;20579;-77
2023/09/06 09:49:24;;;;;;;1.90;1.90;;;36.80;42.80;;;;;;4973330;28;20577;-77
2023/09/06 09:51:52;;;;;;;1.90;1.80;;;36.90;42.60;;;;;;4972965;28;20476;-77
2023/09/06 09:54:22;;;;;;;1.93;1.73;;;37.10;42.50;;;;;;4973300;28;20443;-77
2023/09/06 09:56:57;;;;;;;1.87;1.87;;;37.30;43.00;;;;;;4972914;28;20496;-78
2023/09/06 09:59:25;;;;;;;2.33;2.00;;;37.50;42.20;;;;;;4973178;28;20535;-78
2023/09/06 10:01:53;;;;;;;1.90;1.90;;;37.60;42.00;;;;;;4973355;28;20450;-78
2023/09/06 10:04:21;;;;;;;2.17;2.10;;;37.80;41.90;;;;;;4973366;28;20435;-77
2023/09/06 10:06:50;;;;;;;2.27;2.27;;;37.90;41.70;;;;;;4972821;28;20489;-78
2023/09/06 10:09:18;;;;;;;2.00;2.00;;;38.00;41.60;;;;;;4972960;28;20536;-77
2023/09/06 10:11:48;;;;;;;2.03;2.00;;;38.20;41.40;;;;;;4973113;28;20449;-78
2023/09/06 10:14:16;;;;;;;1.80;1.80;;;38.40;41.30;;;;;;4972778;28;20485;-77
2023/09/06 10:16:44;;;;;;;2.20;2.10;;;38.50;41.10;;;;;;4973374;28;20458;-78
2023/09/06 10:19:13;;;;;;;1.90;1.80;;;38.70;41.00;;;;;;4974527;28;20465;-77
2023/09/06 10:21:41;;;;;;;2.07;1.97;;;38.80;40.80;;;;;;4975784;28;20514;-78
2023/09/06 10:24:16;;;;;;;1.93;1.83;;;39.00;40.70;;;;;;4974592;28;20451;-77
2023/09/06 10:26:43;;;;;;;2.10;2.10;;;39.10;40.40;;;;;;4974020;28;20819;-77
2023/09/06 10:29:13;;;;;;;2.10;2.00;;;39.30;40.30;;;;;;4973999;28;20482;-79
2023/09/06 10:31:47;;;;;;;1.90;1.80;;;39.40;40.20;;;;;;4973047;28;20533;-78
2023/09/06 10:34:16;;;;;;;1.90;1.90;;;39.50;39.90;;;;;;4973537;28;20454;-78
2023/09/06 10:36:52;;;;;;;1.77;1.77;;;39.70;39.90;;;;;;4972605;28;20452;-78
2023/09/06 10:39:22;;;;;;;1.90;1.80;;;39.90;39.80;;;;;;4979203;28;20576;-80
2023/09/06 10:42:16;;;;;;;2.00;2.00;;;40.00;39.60;;;;;;4981423;28;20473;-78
2023/09/06 10:45:24;;;;;;;1.87;1.77;;;40.20;39.50;;;;;;4978566;28;20485;-78
2023/09/06 10:47:54;;;;;;;1.80;1.80;;;40.40;39.30;;;;;;4978076;28;20474;-79
2023/09/06 10:50:22;;;;;;;1.80;1.80;;;40.50;39.00;;;;;;4977913;28;20488;-78
2023/09/06 10:52:51;;;;;;;1.60;1.60;;;40.60;39.00;;;;;;4978708;28;20465;-78
2023/09/06 10:55:21;;;;;;;1.70;1.60;;;40.70;38.80;;;;;;4978322;28;20442;-79
2023/09/06 10:57:55;;;;;;;1.60;1.60;;;40.80;38.60;;;;;;4979226;28;20489;-79
2023/09/06 11:00:26;;;;;;;1.60;1.60;;;41.00;38.50;;;;;;4979557;28;20461;-79
2023/09/06 11:03:14;;;;;;;1.37;1.37;;;41.10;38.30;;;;;;4978944;28;20441;-80
2023/09/06 11:05:43;;;;;;;1.20;1.20;;;41.30;38.30;;;;;;4980105;28;20445;-79
2023/09/06 11:08:22;;;;;;;1.20;1.20;;;41.40;38.20;;;;;;4980273;28;20469;-79
2023/09/06 11:10:50;;;;;;;1.60;1.60;;;41.50;38.00;;;;;;4979673;28;20476;-79
2023/09/06 11:13:19;;;;;;;1.40;1.40;;;41.70;37.80;;;;;;4982583;28;20467;-79
2023/09/06 11:15:50;;;;;;;1.80;1.80;;;41.80;37.70;;;;;;4982861;28;20449;-79
2023/09/06 11:18:19;;;;;;;1.40;1.40;;;41.90;37.60;;;;;;4982494;28;20504;-79
2023/09/06 11:20:48;;;;;;;1.40;1.40;;;41.90;37.50;;;;;;4981645;28;20449;-78
2023/09/06 11:23:16;;;;;;;1.30;1.30;;;42.10;37.60;;;;;;4981271;28;20452;-79
2023/09/06 11:25:44;;;;;;;1.87;1.70;;;42.20;37.30;;;;;;4983171;28;20529;-79
2023/09/06 11:28:17;;;;;;;1.57;1.23;;;42.30;37.20;;;;;;4982160;28;20481;-79
2023/09/06 11:30:47;;;;;;;1.70;1.70;;;42.40;37.20;;;;;;4982248;28;20442;-79
2023/09/06 11:33:16;;;;;;;1.10;1.10;;;42.50;37.00;;;;;;4982580;28;20496;-80
2023/09/06 11:35:51;;;;;;;1.30;1.30;;;42.60;36.80;;;;;;4980803;28;20438;-78
2023/09/06 11:38:24;;;;;;;1.60;1.50;;;42.70;36.70;;;;;;4980477;28;20456;-78
2023/09/06 11:40:52;;;;;;;1.60;1.50;;;42.80;36.60;;;;;;4987023;28;20457;-80
2023/09/06 11:43:23;;;;;;;1.20;1.20;;;42.90;36.50;;;;;;4983568;28;20470;-80
2023/09/06 11:45:53;;;;;;;1.43;1.43;;;43.00;36.30;;;;;;4984282;28;20465;-79
2023/09/06 11:48:27;;;;;;;1.37;1.37;;;43.00;36.30;;;;;;4986590;28;20442;-80
2023/09/06 11:51:03;;;;;;;1.37;1.10;;;43.10;35.90;;;;;;4998399;28;20458;-80
2023/09/06 11:53:32;;;;;;;1.07;1.07;;;43.10;35.80;;;;;;4998502;28;20433;-80
2023/09/06 11:56:00;;;;;;;1.10;1.10;;;43.20;35.70;;;;;;4989159;28;20441;-79
2023/09/06 11:58:29;;;;;;;1.20;1.20;;;43.30;35.90;;;;;;4986696;28;20532;-81
2023/09/06 12:01:01;;;;;;;1.30;1.30;;;43.30;35.60;;;;;;4987466;28;20533;-80
2023/09/06 12:03:33;;;;;;;1.20;1.20;;;43.50;35.60;;;;;;4986170;28;20441;-79
2023/09/06 12:06:06;;;;;;;1.10;1.10;;;43.50;35.40;;;;;;4987039;28;20441;-80
2023/09/06 12:08:34;;;;;;;1.40;1.30;;;43.60;35.20;;;;;;4985105;28;20438;-80
2023/09/06 12:11:08;;;;;;;1.10;1.10;;;43.70;35.20;;;;;;4984333;28;20441;-79
2023/09/06 12:13:37;;;;;;;1.90;1.20;;;43.70;35.30;;;;;;4978360;28;20509;-80
2023/09/06 12:16:05;;;;;;;1.20;1.20;;;43.70;35.00;;;;;;4979820;28;20438;-80
2023/09/06 12:18:34;;;;;;;1.13;1.13;;;43.80;35.00;;;;;;4986014;28;20454;-80
2023/09/06 12:21:04;;;;;;;1.20;1.20;;;43.80;34.90;;;;;;4986129;28;20469;-80
2023/09/06 12:23:33;;;;;;;1.10;1.10;;;43.80;34.70;;;;;;4984925;28;20484;-80
2023/09/06 12:26:05;;;;;;;0.80;0.80;;;43.90;34.80;;;;;;4986019;28;20452;-80
2023/09/06 12:28:34;;;;;;;1.00;1.00;;;43.90;34.40;;;;;;4982759;28;20437;-80
2023/09/06 12:31:03;;;;;;;1.33;1.33;;;44.00;34.50;;;;;;4984588;28;20473;-79
2023/09/06 12:33:45;;;;;;;1.20;1.20;;;44.00;34.50;;;;;;4984389;28;20442;-80
2023/09/06 12:36:16;;;;;;;1.20;1.20;;;44.10;34.50;;;;;;4985135;28;20488;-80
2023/09/06 12:38:45;;;;;;;1.20;1.20;;;44.10;34.50;;;;;;4980504;28;20458;-79
2023/09/06 12:41:13;;;;;;;1.10;1.10;;;44.30;34.40;;;;;;4979820;28;20453;-79
2023/09/06 12:43:41;;;;;;;1.00;1.00;;;44.30;34.50;;;;;;4978969;28;20524;-79
2023/09/06 12:46:11;;;;;;;1.10;1.00;;;44.30;34.30;;;;;;4979782;28;20757;-79
2023/09/06 12:48:41;;;;;;;1.00;1.00;;;44.30;34.00;;;;;;4977920;28;20448;-79
2023/09/06 12:51:09;;;;;;;0.90;0.90;;;44.30;34.20;;;;;;4978096;28;20481;-79
2023/09/06 12:53:38;;;;;;;1.10;1.10;;;44.30;34.00;;;;;;4978992;28;20528;-79
2023/09/06 12:56:07;;;;;;;0.90;0.90;;;44.40;34.40;;;;;;4977968;28;20503;-79
2023/09/06 12:58:39;;;;;;;0.93;0.93;;;44.40;34.20;;;;;;4975757;28;20536;-79
2023/09/06 13:01:10;;;;;;;1.00;1.00;;;44.50;34.00;;;;;;4976312;28;20434;-79